Howell, South Dakota
Current Conditions -  °F | °C
As of 6:12 PM on Monday 22 Dec 2014 (Local Time) from KPIR Reporting Station
Unknown Precip Unknown Precip  
Wind Chill: 18°   Ceiling: 1600
Heat Index: 31°   Visibility: 9mi
Dew Point: 28°   Wind: 22mph
Humidity: 89%   Direction: 300°WNW
Pressure: 29.52"   Gusts: 29mph
Location:  44.5493°N, 99.483°W
Report Text: KPIR 230012Z AUTO 30019G25KT 250V330 9SM UP FEW010 OVC016 M01/M02 A2952 RMK AO2 PK WND 32028/2354 P0000 T10061022
Loading
Personal Weather Stations






























Interactive Weather Map New forecast layout! Learn more

10-Day Weather Forecast

Advertisements
Track Severe Weather on mobile